Latest Coastal Weather Observations for Cape Grim

IDT60701

Issued at 1:15 am EST Thursday 31 July 2014 (issued every 10 minutes, with the page automatically refreshed every 10 minutes)

About coastal observations | Map of coastal stations | Coastal observations for TAS | Marine services | Other Formats
Station Details ID: 091331 Name: CAPE GRIM Lat: -40.68 Lon: 144.69 Height: 86.0 m
Data from the previous 72 hours. | See also: Recent months for locations in Tasmania
Date/Time
EST
Temp

°C
Wind Pressure Rain
since 9am
mm
Weather Cloud Vis
km
Sea
Height
m
Swell
Dir
 
Speed
knots
Gust
knots
hPa Trend Height
m
Period
s
Dir
31/01:00am 12.7 WNW 45 55 995.9 - 3.6 - Partly cloudy - - - - -
31/12:30am 12.3 WNW 39 49 996.3 - 3.4 - Partly cloudy - - - - -
31/12:08am 12.6 WNW 42 52 997.0 - 2.4 - Partly cloudy - - - - -
31/12:07am 13.1 WNW 43 52 996.9 - 2.4 - Partly cloudy - - - - -
31/12:00am 13.2 WNW 32 44 997.1 - 2.2 Rain Cloudy - - - - -
 
Date/Time
EST
Temp

°C
Wind Pressure Rain
since 9am
mm
Weather Cloud Vis
km
Sea
Height
m
Swell
Dir
 
Speed
knots
Gust
knots
hPa Trend Height
m
Period
s
Dir
30/11:39pm 13.1 NW 34 45 997.6 - 2.0 - Partly cloudy - - - - -
30/11:30pm 12.9 NW 34 43 997.8 - 2.0 - Partly cloudy - - - - -
30/11:00pm 13.0 NW 33 43 998.2 - 2.0 - Partly cloudy - - - - -
30/10:30pm 13.6 NW 33 45 998.5 - 2.0 - Partly cloudy - - - - -
30/10:00pm 13.8 WNW 32 46 998.7 - 2.0 - Partly cloudy - - - - -
30/09:30pm 13.8 WNW 34 45 998.9 - 2.0 - Partly cloudy - - - - -
30/09:00pm 13.7 WNW 33 49 999.4 - 2.0 - Mostly clear - - - - -
30/08:30pm 13.5 WNW 37 48 999.3 - 2.0 - Partly cloudy - - - - -
30/08:00pm 14.1 WNW 36 48 999.6 - 2.0 - Partly cloudy - - - - -
30/07:34pm 13.8 WNW 34 44 999.6 - 2.0 - Partly cloudy - - - - -
30/07:30pm 13.8 WNW 35 44 999.5 - 2.0 - Partly cloudy - - - - -
30/07:04pm 13.9 WNW 38 48 999.5 - 2.0 - Partly cloudy - - - - -
30/07:00pm 14.1 WNW 39 48 999.7 - 2.0 - Partly cloudy - - - - -
30/06:30pm 13.5 WNW 36 46 999.7 - 2.0 - Partly cloudy - - - - -
30/06:00pm 12.5 WNW 37 57 1000.0 - 1.8 Rain Cloudy - - - - -
30/05:57pm 12.5 WNW 34 52 999.9 - 1.6 - Partly cloudy - - - - -
30/05:30pm 13.9 WNW 31 42 1000.2 - 0.8 - Partly cloudy - - - - -
30/05:03pm 14.1 WNW 32 42 1000.3 - 0.8 - Partly cloudy - - - - -
30/05:00pm 14.0 WNW 33 42 1000.3 - 0.8 - Partly cloudy - - - - -
30/04:39pm 14.0 WNW 35 45 1000.2 - 0.8 - Partly cloudy - - - - -
30/04:30pm 14.0 WNW 34 43 1000.4 - 0.8 - Partly cloudy - - - - -
30/04:00pm 14.1 W 37 49 1000.5 - 0.8 - Partly cloudy - - - - -
30/03:42pm 13.9 W 33 43 1000.4 - 0.8 - Partly cloudy - - - - -
30/03:30pm 13.8 W 31 40 1000.6 - 0.8 - Partly cloudy - - - - -
30/03:04pm 14.2 WNW 32 45 1000.7 - 0.8 - Partly cloudy - - - - -
30/03:00pm 14.2 WNW 31 39 1000.8 - 0.8 - Cloudy - - - - -
30/02:31pm 14.3 WNW 34 44 1001.0 - 0.8 - Partly cloudy - - - - -
30/02:30pm 14.4 WNW 35 44 1000.9 - 0.8 - Partly cloudy - - - - -
30/02:00pm 14.4 W 30 41 1001.1 - 0.8 - Partly cloudy - - - - -
30/01:43pm 14.6 WNW 33 43 1001.1 - 0.8 - Partly cloudy - - - - -
30/01:30pm 14.2 WNW 34 42 1001.3 - 0.8 - Partly cloudy - - - - -
30/01:07pm 13.9 WNW 34 44 1001.5 - 0.8 - Partly cloudy - - - - -
30/01:00pm 14.0 WNW 34 43 1001.6 - 0.8 - Partly cloudy - - - - -
30/12:49pm 13.4 WNW 34 44 1001.6 - 0.8 - Partly cloudy - - - - -
30/12:30pm 13.2 WNW 33 41 1001.9 - 0.4 - Partly cloudy - - - - -
30/12:00pm 13.9 WNW 33 43 1002.6 - 0.4 - Cloudy - - - - -
30/11:37am 13.6 WNW 29 41 1002.9 - 0.4 - Partly cloudy - - - - -
30/11:30am 13.8 WNW 31 37 1003.1 - 0.4 - Partly cloudy - - - - -
30/11:00am 13.3 WNW 34 44 1003.5 - 0.4 - Partly cloudy - - - - -
30/10:30am 13.5 WNW 31 42 1003.6 - 0.0 - Partly cloudy - - - - -
30/10:00am 13.4 WNW 32 42 1003.7 - 0.0 - Partly cloudy - - - - -
30/09:45am 13.5 WNW 30 40 1003.5 - 0.0 - Partly cloudy - - - - -
30/09:30am 13.5 WNW 33 41 1003.4 - 0.0 - Partly cloudy - - - - -
30/09:00am 13.2 WNW 31 42 1003.4 - 1.2 - Cloudy - - - - -
30/08:45am 13.2 WNW 33 43 1003.2 - 1.2 - Partly cloudy - - - - -
30/08:30am 13.2 WNW 33 40 1003.3 - 1.2 - Partly cloudy - - - - -
30/08:00am 12.8 W 30 43 1003.2 - 1.2 - Partly cloudy - - - - -
30/07:30am 12.6 WNW 29 39 1003.0 - 1.2 - Partly cloudy - - - - -
30/07:04am 12.3 WNW 28 39 1003.3 - 1.2 - Partly cloudy - - - - -
30/07:00am 12.4 WNW 29 36 1003.4 - 1.2 - Partly cloudy - - - - -
30/06:40am 12.3 WNW 27 37 1003.1 - 1.2 - Partly cloudy - - - - -
30/06:30am 12.4 WNW 30 37 1003.0 - 1.2 - Partly cloudy - - - - -
30/06:00am 12.8 W 30 37 1002.8 - 1.2 - Mostly cloudy - - - - -
30/05:37am 13.0 W 29 39 1002.9 - 1.2 - Partly cloudy - - - - -
30/05:30am 12.8 W 30 38 1002.9 - 1.2 - Partly cloudy - - - - -
30/05:05am 12.6 W 29 39 1002.7 - 1.2 - Partly cloudy - - - - -
30/05:00am 12.8 W 29 37 1002.9 - 1.2 - Partly cloudy - - - - -
30/04:30am 12.6 W 28 38 1002.7 - 1.2 - Partly cloudy - - - - -
30/04:00am 12.3 W 27 40 1003.0 - 1.2 - Partly cloudy - - - - -
30/03:30am 12.3 W 29 43 1003.0 - 1.2 - Partly cloudy - - - - -
30/03:00am 12.4 W 29 45 1003.0 - 1.2 - Cloudy - - - - -
30/02:30am 12.5 W 27 41 1002.9 - 1.2 - Partly cloudy - - - - -
30/02:00am 12.6 W 28 40 1002.5 - 1.2 - Partly cloudy - - - - -
30/01:30am 12.7 W 29 43 1002.1 - 1.2 - Partly cloudy - - - - -
30/01:00am 12.6 W 29 43 1001.8 - 1.2 - Partly cloudy - - - - -
30/12:30am 12.7 W 31 44 1001.2 - 1.2 - Partly cloudy - - - - -
30/12:00am 12.9 W 32 46 1000.9 - 1.2 - Mostly cloudy - - - - -
 
Date/Time
EST
Temp

°C
Wind Pressure Rain
since 9am
mm
Weather Cloud Vis
km
Sea
Height
m
Swell
Dir
 
Speed
knots
Gust
knots
hPa Trend Height
m
Period
s
Dir
29/11:30pm 13.1 W 33 50 1000.4 - 1.2 - Partly cloudy - - - - -
29/11:00pm 13.3 W 33 45 1000.5 - 1.2 - Partly cloudy - - - - -
29/10:30pm 13.3 W 31 43 999.8 - 1.2 - Partly cloudy - - - - -
29/10:00pm 13.2 W 33 45 999.8 - 1.2 - Partly cloudy - - - - -
29/09:41pm 13.3 W 39 51 999.1 - 1.2 - Partly cloudy - - - - -
29/09:38pm 13.3 W 52 63 999.0 - 1.2 - Partly cloudy - - - - -
29/09:30pm 13.4 W 39 57 999.3 - 1.2 - Partly cloudy - - - - -
29/09:16pm 13.3 W 42 52 999.2 - 1.2 - Partly cloudy - - - - -
29/09:13pm 13.2 W 45 52 999.1 - 1.2 - Partly cloudy - - - - -
29/09:00pm 13.4 W 34 50 999.2 - 1.2 - Cloudy - - - - -
29/08:30pm 13.3 W 36 50 998.8 - 1.2 - Partly cloudy - - - - -
29/08:00pm 13.1 W 38 50 998.4 - 1.2 - Partly cloudy - - - - -
29/07:30pm 13.5 W 45 60 997.6 - 1.2 - Partly cloudy - - - - -
29/07:19pm 13.7 W 47 57 997.5 - 1.2 - Partly cloudy - - - - -
29/07:00pm 13.6 W 36 53 997.2 - 1.2 - Partly cloudy - - - - -
29/06:54pm 13.5 W 34 44 997.4 - 1.2 - Partly cloudy - - - - -
29/06:30pm 13.7 W 45 57 996.7 - 1.2 - Partly cloudy - - - - -
29/06:00pm 13.7 W 41 58 996.1 - 1.2 - Cloudy - - - - -
29/05:30pm 13.9 W 43 55 995.8 - 1.2 - Partly cloudy - - - - -
29/05:00pm 13.8 W 43 57 995.3 - 1.2 - Partly cloudy - - - - -
29/04:30pm 13.7 WNW 46 58 994.8 - 1.2 - Partly cloudy - - - - -
29/04:10pm 13.8 WNW 41 61 994.5 - 1.2 - Partly cloudy - - - - -
29/04:01pm 13.4 WNW 40 50 994.4 - 1.2 - Partly cloudy - - - - -
29/04:00pm 13.4 WNW 41 50 994.4 - 1.2 - Partly cloudy - - - - -
29/03:30pm 14.0 WNW 37 50 995.0 - 1.2 - Partly cloudy - - - - -
29/03:24pm 14.0 WNW 36 46 995.1 - 1.2 - Partly cloudy - - - - -
29/03:22pm 14.0 WNW 34 41 995.2 - 1.2 - Partly cloudy - - - - -
29/03:00pm 14.1 W 44 55 994.8 - 1.2 - Cloudy - - - - -
29/02:30pm 14.2 WNW 40 53 994.5 - 1.2 - Partly cloudy - - - - -
29/02:00pm 14.0 WNW 37 49 994.9 - 1.2 - Partly cloudy - - - - -
29/01:42pm 13.4 WNW 34 49 995.3 - 1.2 - Partly cloudy - - - - -
29/01:30pm 13.2 WNW 35 44 995.4 - 1.2 - Partly cloudy - - - - -
29/01:00pm 12.5 W 34 44 995.9 - 1.2 - Partly cloudy - - - - -
29/12:31pm 13.1 W 35 45 996.4 - 1.2 - Partly cloudy - - - - -
29/12:30pm 13.0 W 36 45 996.4 - 1.2 - Partly cloudy - - - - -
29/12:00pm 13.7 W 38 49 996.7 - 1.0 - Cloudy - - - - -
29/11:30am 13.9 W 34 45 997.1 - 1.0 - Partly cloudy - - - - -
29/11:00am 13.8 WNW 38 49 996.9 - 1.0 - Partly cloudy - - - - -
29/10:41am 13.8 WNW 37 47 996.9 - 1.0 - Partly cloudy - - - - -
29/10:30am 13.8 WNW 38 47 996.9 - 1.0 - Partly cloudy - - - - -
29/10:00am 13.4 WNW 36 47 997.0 - 1.0 - Partly cloudy - - - - -
29/09:30am 13.5 WNW 32 45 997.3 - 1.0 - Partly cloudy - - - - -
29/09:00am 13.8 WNW 36 50 997.4 - 13.6 - Cloudy - - - - -
29/08:30am 13.6 WNW 37 49 997.5 - 13.6 - Partly cloudy - - - - -
29/08:00am 13.9 WNW 40 51 997.5 - 13.6 - Partly cloudy - - - - -
29/07:30am 13.7 WNW 39 51 997.2 - 13.6 - Partly cloudy - - - - -
29/07:00am 13.4 NW 39 53 997.1 - 13.2 - Partly cloudy - - - - -
29/06:30am 13.6 NW 40 54 996.9 - 12.8 - Partly cloudy - - - - -
29/06:20am 13.2 NW 37 49 996.8 - 12.6 - Partly cloudy - - - - -
29/06:11am 13.1 WNW 27 37 997.2 - 12.2 - Partly cloudy - - - - -
29/06:05am 13.3 NW 39 49 997.2 - 11.8 - Partly cloudy - - - - -
29/06:00am 13.5 NW 40 48 997.2 - 11.8 Recent precip. Cloudy - - - - -
29/05:30am 12.9 NW 34 49 997.3 - 11.6 - Partly cloudy - - - - -
29/05:23am 12.9 NNW 34 45 997.5 - 10.6 - Partly cloudy - - - - -
29/05:15am 12.8 NW 29 41 997.8 - 10.6 - Partly cloudy - - - - -
29/05:13am 12.7 NW 29 38 997.9 - 10.4 - Partly cloudy - - - - -
29/05:03am 12.0 NW 29 39 998.4 - 10.2 - Partly cloudy - - - - -
29/05:00am 12.3 NW 31 40 998.6 - 10.0 - Partly cloudy - - - - -
29/04:30am 13.1 NW 35 48 998.6 - 8.6 - Partly cloudy - - - - -
29/04:00am 13.0 NW 34 44 999.4 - 8.4 - Partly cloudy - - - - -
29/03:30am 12.8 NW 35 45 999.7 - 8.2 - Partly cloudy - - - - -
29/03:00am 12.6 NW 29 43 1000.4 - 7.0 Rain Cloudy - - - - -
29/02:30am 12.8 NW 26 36 1000.7 - 6.8 - Partly cloudy - - - - -
29/02:00am 12.9 NW 28 40 1001.6 - 6.8 - Partly cloudy - - - - -
29/01:32am 12.8 NW 25 35 1002.0 - 6.8 - Partly cloudy - - - - -
29/01:30am 12.8 NW 26 35 1002.0 - 6.8 - Partly cloudy - - - - -
29/01:11am 12.3 NNW 28 38 1002.3 - 6.8 - Partly cloudy - - - - -
29/01:00am 12.6 NNW 28 35 1002.4 - 6.8 - Partly cloudy - - - - -
29/12:45am 12.6 NW 25 35 1002.9 - 6.8 - Partly cloudy - - - - -
29/12:41am 12.4 NW 25 35 1002.9 - 6.8 - Partly cloudy - - - - -
29/12:35am 12.4 NNW 25 32 1003.0 - 6.8 - Partly cloudy - - - - -
29/12:30am 12.5 NNW 27 35 1003.2 - 6.8 - Partly cloudy - - - - -
29/12:00am 12.9 NW 28 39 1003.7 - 6.6 Recent precip. Mostly cloudy - - - - -
 
Date/Time
EST
Temp

°C
Wind Pressure Rain
since 9am
mm
Weather Cloud Vis
km
Sea
Height
m
Swell
Dir
 
Speed
knots
Gust
knots
hPa Trend Height
m
Period
s
Dir
28/11:31pm 12.5 NW 25 35 1004.1 - 6.6 - Partly cloudy - - - - -
28/11:30pm 12.6 NW 25 34 1004.1 - 6.6 - Partly cloudy - - - - -
28/11:23pm 12.5 NW 26 36 1004.1 - 6.6 - Partly cloudy - - - - -
28/11:15pm 12.3 WNW 25 36 1004.3 - 6.6 - Partly cloudy - - - - -
28/11:12pm 12.2 WNW 23 31 1004.3 - 6.6 - Partly cloudy - - - - -
28/11:00pm 11.6 NW 25 39 1004.8 - 3.8 - Partly cloudy - - - - -
28/10:30pm 13.6 WNW 27 37 1004.8 - 1.0 - Partly cloudy - - - - -
28/10:10pm 13.4 WNW 24 35 1004.7 - 1.0 - Partly cloudy - - - - -
28/10:00pm 13.4 WNW 24 32 1005.0 - 1.0 - Partly cloudy - - - - -
28/09:30pm 13.3 WNW 30 38 1004.7 - 1.0 - - - - - - -
28/09:02pm 13.0 WNW 29 39 1005.0 - 1.0 - Partly cloudy - - - - -
28/09:00pm 13.0 WNW 28 37 1005.1 - 1.0 - Mostly cloudy - - - - -
28/08:30pm 13.0 WNW 24 35 1005.2 - 1.0 - Partly cloudy - - - - -
28/08:26pm 12.9 WNW 23 35 1005.3 - 1.0 - Partly cloudy - - - - -
28/08:00pm 12.7 WNW 21 27 1005.5 - 1.0 - Partly cloudy - - - - -
28/07:30pm 12.7 WNW 23 29 1005.6 - 1.0 - Partly cloudy - - - - -
28/07:05pm 12.5 WNW 19 30 1005.6 - 1.0 - Partly cloudy - - - - -
28/07:00pm 12.7 WNW 18 25 1005.9 - 1.0 - Partly cloudy - - - - -
28/06:30pm 12.0 WNW 22 29 1005.9 - 1.0 - Partly cloudy - - - - -
28/06:00pm 11.1 WNW 21 26 1006.0 - 1.0 Recent precip. Cloudy - - - - -
28/05:31pm 11.0 WNW 28 40 1006.1 - 0.8 - Partly cloudy - - - - -
28/05:30pm 11.9 WNW 27 36 1006.0 - 0.8 - Partly cloudy - - - - -
28/05:03pm 11.9 NW 24 34 1005.8 - 0.2 - Partly cloudy - - - - -
28/05:00pm 12.0 NW 26 35 1005.9 - 0.2 - Partly cloudy - - - - -
28/04:30pm 12.9 NW 27 37 1005.9 - 0.0 - Partly cloudy - - - - -
28/04:01pm 13.2 NW 25 35 1006.1 - 0.0 - Partly cloudy - - - - -
28/04:00pm 13.1 NW 24 31 1006.1 - 0.0 - Partly cloudy - - - - -
28/03:30pm 13.3 NW 21 27 1006.4 - 0.0 - Partly cloudy - - - - -
28/03:00pm 13.8 NW 20 27 1006.5 - 0.0 - Mostly clear - - - - -
28/02:30pm 14.5 NW 21 28 1006.6 - 0.0 - Partly cloudy - - - - -
28/02:00pm 14.2 NW 22 28 1007.1 - 0.0 - Partly cloudy - - - - -
28/01:30pm 14.1 WNW 19 26 1007.6 - 0.0 - Partly cloudy - - - - -
28/01:00pm 14.3 WNW 19 26 1008.3 - 0.0 - Partly cloudy - - - - -
28/12:30pm 14.1 WNW 20 27 1008.6 - 0.0 - Partly cloudy - - - - -
28/12:00pm 14.1 WNW 22 29 1008.9 - 0.0 - Mostly clear - - - - -
28/11:58am 14.1 WNW 22 32 1008.8 - 0.0 - Partly cloudy - - - - -
28/11:30am 14.2 WNW 21 27 1009.2 - 0.0 - Partly cloudy - - - - -
28/11:00am 13.8 WNW 23 30 1009.5 - 0.0 - Partly cloudy - - - - -
28/10:30am 14.1 WNW 21 26 1009.5 - 0.0 - Partly cloudy - - - - -
28/10:00am 13.9 WNW 20 25 1009.6 - 0.0 - Partly cloudy - - - - -
28/09:30am 13.6 NW 17 22 1009.5 - 0.0 - Partly cloudy - - - - -
28/09:00am 13.5 NW 18 21 1009.7 - 1.0 - Mostly cloudy - - - - -
28/08:30am 13.1 WNW 15 20 1009.7 - 1.0 - Partly cloudy - - - - -
28/08:00am 13.3 WNW 19 25 1009.8 - 1.0 - Partly cloudy - - - - -
28/07:30am 13.0 WNW 18 23 1009.9 - 1.0 - Partly cloudy - - - - -
28/07:00am 12.9 WNW 21 27 1010.0 - 1.0 - Partly cloudy - - - - -
28/06:43am 12.6 WNW 23 29 1009.8 - 1.0 - Partly cloudy - - - - -
28/06:30am 13.0 WNW 23 32 1009.7 - 0.8 - Partly cloudy - - - - -
28/06:28am 13.3 WNW 22 32 1009.7 - 0.8 - Partly cloudy - - - - -
28/06:07am 12.8 WNW 24 34 1009.5 - 0.0 - Partly cloudy - - - - -
28/06:00am 13.1 WNW 24 33 1009.7 - 0.0 - Cloudy - - - - -
28/05:50am 13.4 NW 25 35 1009.6 - 0.0 - Partly cloudy - - - - -
28/05:30am 13.5 NW 27 34 1009.6 - 0.0 - Partly cloudy - - - - -
28/05:00am 13.5 NW 25 32 1009.9 - 0.0 - Partly cloudy - - - - -
28/04:30am 13.4 NW 23 29 1010.0 - 0.0 - Partly cloudy - - - - -
28/04:00am 13.4 NW 23 30 1010.4 - 0.0 - Partly cloudy - - - - -
28/03:46am 13.3 NW 21 31 1010.4 - 0.0 - Partly cloudy - - - - -
28/03:30am 13.3 NW 21 29 1010.6 - 0.0 - Cloudy - - - - -
28/03:00am 13.4 NW 23 33 1011.0 - 0.0 - Cloudy - - - - -
28/02:34am 13.4 NW 24 34 1011.2 - 0.0 - Partly cloudy - - - - -
28/02:30am 13.4 NW 25 34 1011.2 - 0.0 - Partly cloudy - - - - -
28/02:04am 13.3 NW 24 34 1011.4 - 0.0 - Cloudy - - - - -
28/02:00am 13.4 NW 24 31 1011.5 - 0.0 - Partly cloudy - - - - -
28/01:41am 13.5 NW 25 35 1011.6 - 0.0 - Partly cloudy - - - - -
28/01:30am 13.4 NW 24 32 1011.6 - 0.0 - Partly cloudy - - - - -

Other Formats:

Comma delimited format used in spreadsheet applications
http://www.bom.gov.au/fwo/IDT60701/IDT60701.95954.axf

JavaScript Object Notation format (JSON) in row-major order
http://www.bom.gov.au/fwo/IDT60701/IDT60701.95954.json